マン島 の空港の天気 - METARとTAF

マン島空港 ( EGNS / IOM ) - マン島 Isle of Man
飛行場実況気象(Metar)
観測時間10/20 18:50 BST (10/20 17:50 UTC)
風向・風速南西 5m/s
視程10km以上
天気現象
少しの雲 雲底高度 240m
全天を覆う雲 雲底高度 670m
気温14℃
湿度94%
気圧1028hPa
METAREGNS 201750Z 22010KT 9999 FEW008 OVC022 14/13 Q1028 NOSIG
過去の天気等 Google飛行場航空写真 Wunderground天気予報

過去48時間のMETAR

飛行場予報(TAF)
発表時間: 10/20 18:00 BST (10/20 17:00 UTC)
予報対象時間: 20日19時 BST ~ 20日22時 BST
風向・風速南西 5m/s
視程10km以上
少しの雲 雲底高度 370m
全天の8割程度の雲 雲底高度 1220m
20日19時 BST ~ 20日22時 BST に 確率 30% で一時的に
視程6000m
天気現象弱い霧雨
全天の8割程度の雲 雲底高度 180m
TAF EGNS 201700Z 2018/2021 22010KT 9999 FEW012 BKN040
PROB30 TEMPO 2018/2021 6000 -DZ BKN006